Time;durP1;ratioP1;P1;durP2;ratioP2;P2;SDS_P1;SDS_P2;PMS_P1;PMS_P2;Temp;Humidity;BMP_temperature;BMP_pressure;BME280_temperature;BME280_humidity;BME280_pressure;Samples;Min_cycle;Max_cycle;Signal;HPM_P1;HPM_P2
2021/05/10 00:02:06;;;;;;;1.77;1.17;;;;;;;20.07;49.13;99520.28;4948094;28;20481;-76
2021/05/10 00:04:34;;;;;;;1.55;1.05;;;;;;;20.19;49.09;99520.13;4989759;28;20214;-75
2021/05/10 00:07:02;;;;;;;1.63;1.10;;;;;;;20.31;47.61;99521.94;4957135;28;20294;-75
2021/05/10 00:09:28;;;;;;;2.47;0.88;;;;;;;20.24;47.94;99521.81;4990819;28;20206;-75
2021/05/10 00:11:53;;;;;;;2.03;0.90;;;;;;;20.26;48.60;99525.00;4940776;28;20279;-75
2021/05/10 00:14:38;;;;;;;2.60;1.00;;;;;;;20.26;47.22;99519.50;4973948;28;20190;-75
2021/05/10 00:17:06;;;;;;;1.42;1.17;;;;;;;20.16;48.04;99528.34;4983802;28;20222;-76
2021/05/10 00:19:34;;;;;;;1.67;1.10;;;;;;;20.25;48.08;99518.69;4938880;28;20248;-75
2021/05/10 00:21:59;;;;;;;1.25;1.05;;;;;;;20.35;47.00;99522.84;4968155;28;20229;-75
2021/05/10 00:24:25;;;;;;;1.40;1.00;;;;;;;20.27;46.75;99526.59;4989904;28;20727;-75
2021/05/10 00:26:55;;;;;;;2.55;0.88;;;;;;;20.03;47.45;99521.34;4989547;28;20271;-76
2021/05/10 00:29:21;;;;;;;1.98;1.00;;;;;;;19.94;48.77;99525.47;4974884;28;20267;-76
2021/05/10 00:31:47;;;;;;;2.17;1.00;;;;;;;20.03;47.49;99515.84;4954299;28;20639;-77
2021/05/10 00:34:13;;;;;;;1.08;1.00;;;;;;;20.01;48.55;99523.69;4940399;28;20273;-77
2021/05/10 00:36:44;;;;;;;2.78;0.90;;;;;;;19.94;46.70;99523.53;4941330;28;20221;-76
2021/05/10 00:39:11;;;;;;;1.17;0.65;;;;;;;19.91;46.97;99524.25;4942996;28;20201;-76
2021/05/10 00:41:37;;;;;;;2.20;1.02;;;;;;;19.87;47.70;99517.06;4939772;28;20237;-75
2021/05/10 00:44:03;;;;;;;1.10;1.00;;;;;;;19.70;49.99;99523.72;4950116;28;20205;-76
2021/05/10 00:46:34;;;;;;;1.95;1.00;;;;;;;19.78;48.31;99525.50;4967626;28;20283;-76
2021/05/10 00:49:03;;;;;;;2.83;1.20;;;;;;;19.64;48.38;99523.59;4955882;28;20672;-75
2021/05/10 00:51:33;;;;;;;2.17;1.13;;;;;;;19.72;47.86;99518.69;4936211;29;20222;-76
2021/05/10 00:53:59;;;;;;;1.42;0.90;;;;;;;19.67;47.78;99521.72;4951609;28;20195;-75
2021/05/10 00:56:24;;;;;;;1.42;0.80;;;;;;;19.76;46.73;99522.31;4962416;28;20230;-75
2021/05/10 00:58:50;;;;;;;1.20;0.88;;;;;;;19.63;47.74;99521.97;4957384;28;20253;-76
2021/05/10 01:01:20;;;;;;;1.67;0.90;;;;;;;19.73;47.51;99528.53;4972672;28;20232;-76
2021/05/10 01:03:47;;;;;;;1.58;1.08;;;;;;;19.72;48.23;99537.97;4969436;28;20191;-76
2021/05/10 01:06:15;;;;;;;0.98;0.88;;;;;;;19.74;47.42;99530.16;4970385;28;20237;-76
2021/05/10 01:08:41;;;;;;;1.55;1.00;;;;;;;19.75;46.71;99531.72;4970145;28;20217;-76
2021/05/10 01:11:06;;;;;;;2.72;1.05;;;;;;;19.71;47.00;99530.84;4969172;28;20222;-76
2021/05/10 01:13:34;;;;;;;1.50;0.98;;;;;;;19.60;47.27;99533.75;4969313;28;20186;-77
2021/05/10 01:16:00;;;;;;;2.20;0.98;;;;;;;19.64;47.15;99523.59;4953256;28;20320;-75
2021/05/10 01:18:25;;;;;;;3.33;1.10;;;;;;;19.67;47.25;99521.72;4937903;28;20799;-75
2021/05/10 01:20:51;;;;;;;0.70;0.70;;;;;;;19.60;47.44;99528.22;4939403;28;20226;-75
2021/05/10 01:23:17;;;;;;;2.38;0.90;;;;;;;19.62;47.62;99528.66;4940860;28;20648;-75
2021/05/10 01:25:47;;;;;;;0.75;0.75;;;;;;;19.60;47.42;99529.03;4972835;28;20234;-74
2021/05/10 01:28:15;;;;;;;2.58;1.10;;;;;;;19.52;47.94;99531.94;4957562;28;20210;-75
2021/05/10 01:30:51;;;;;;;1.63;0.90;;;;;;;19.47;48.44;99530.28;4971525;28;20708;-75
2021/05/10 01:33:18;;;;;;;1.20;0.95;;;;;;;19.55;47.85;99531.25;4959600;28;20664;-75
2021/05/10 01:35:47;;;;;;;0.93;0.90;;;;;;;19.57;47.73;99526.97;4924850;28;20230;-75
2021/05/10 01:38:16;;;;;;;2.45;0.80;;;;;;;19.66;47.49;99533.88;4941468;28;20202;-75
2021/05/10 01:40:47;;;;;;;1.75;1.00;;;;;;;19.60;47.54;99544.75;4972412;28;20225;-75
2021/05/10 01:43:17;;;;;;;1.23;0.93;;;;;;;19.58;47.82;99544.28;4956429;28;20186;-75
2021/05/10 01:45:43;;;;;;;1.08;0.80;;;;;;;19.45;50.58;99548.31;4956866;28;20258;-75
2021/05/10 01:48:12;;;;;;;2.38;1.00;;;;;;;19.26;51.50;99547.44;4941225;28;20292;-75
2021/05/10 01:50:39;;;;;;;1.92;1.00;;;;;;;18.96;54.54;99536.03;4940790;28;20260;-75
2021/05/10 01:53:10;;;;;;;1.83;1.10;;;;;;;19.06;54.73;99541.03;4956533;28;20189;-74
2021/05/10 01:55:40;;;;;;;3.00;1.10;;;;;;;18.89;55.21;99535.84;4956578;28;20354;-75
2021/05/10 01:58:06;;;;;;;1.77;0.98;;;;;;;18.67;55.77;99537.59;4942886;28;20305;-76
2021/05/10 02:00:33;;;;;;;2.75;1.20;;;;;;;18.52;57.71;99536.41;4987937;28;20320;-76
2021/05/10 02:03:12;;;;;;;1.38;1.27;;;;;;;18.32;59.41;99533.84;4971635;28;20204;-75
2021/05/10 02:05:43;;;;;;;2.88;1.27;;;;;;;18.11;61.96;99534.38;4993087;28;20753;-75
2021/05/10 02:08:12;;;;;;;2.55;1.40;;;;;;;17.97;62.34;99544.94;4977071;28;21013;-76
2021/05/10 02:10:38;;;;;;;1.35;1.25;;;;;;;17.75;63.09;99542.69;4962015;28;20236;-76
2021/05/10 02:13:08;;;;;;;3.05;1.27;;;;;;;17.62;64.24;99538.38;4977073;28;20185;-75
2021/05/10 02:15:42;;;;;;;1.73;1.30;;;;;;;17.51;63.96;99548.22;4977638;28;20713;-75
2021/05/10 02:18:08;;;;;;;1.77;1.20;;;;;;;17.46;64.11;99558.63;4993765;28;20699;-76
2021/05/10 02:20:34;;;;;;;1.58;1.35;;;;;;;17.41;65.04;99559.63;4960593;28;20217;-76
2021/05/10 02:23:07;;;;;;;1.40;1.30;;;;;;;17.14;67.48;99550.44;4960783;28;20212;-76
2021/05/10 02:25:40;;;;;;;2.17;1.40;;;;;;;17.15;67.86;99560.28;4961922;28;20248;-75
2021/05/10 02:28:06;;;;;;;2.63;1.40;;;;;;;17.06;68.11;99573.31;4961877;28;20201;-75
2021/05/10 02:30:36;;;;;;;1.35;1.20;;;;;;;17.14;67.55;99569.66;4965006;28;20229;-74
2021/05/10 02:33:03;;;;;;;1.60;1.15;;;;;;;17.16;67.04;99562.75;4951469;28;20200;-75
2021/05/10 02:35:31;;;;;;;2.20;1.50;;;;;;;17.15;69.00;99565.78;4957311;28;20228;-74
2021/05/10 02:37:56;;;;;;;2.10;1.33;;;;;;;17.08;69.43;99565.53;4957675;28;20218;-76
2021/05/10 02:40:22;;;;;;;2.22;1.30;;;;;;;17.08;68.92;99560.06;4941681;28;20190;-76
2021/05/10 02:42:49;;;;;;;2.67;1.50;;;;;;;17.27;67.26;99563.06;4941388;28;20182;-75
2021/05/10 02:45:18;;;;;;;1.75;1.15;;;;;;;17.27;68.23;99563.06;4957303;28;20845;-75
2021/05/10 02:47:44;;;;;;;3.38;1.42;;;;;;;17.17;68.92;99563.53;4957594;28;20565;-76
2021/05/10 02:50:13;;;;;;;3.22;1.70;;;;;;;17.03;71.26;99579.47;4972449;28;20179;-76
2021/05/10 02:52:39;;;;;;;2.67;1.30;;;;;;;17.15;70.27;99582.25;4956543;28;20254;-76
2021/05/10 02:55:05;;;;;;;1.63;1.52;;;;;;;17.10;72.31;99580.50;4956496;28;20178;-75
2021/05/10 02:57:34;;;;;;;1.88;1.40;;;;;;;17.19;70.95;99580.47;4973097;28;20680;-76
2021/05/10 03:00:00;;;;;;;1.63;1.20;;;;;;;17.12;71.32;99582.91;4969079;28;20202;-75
2021/05/10 03:02:28;;;;;;;2.95;1.65;;;;;;;17.14;70.87;99580.63;4983565;28;20224;-76
2021/05/10 03:04:56;;;;;;;2.25;1.30;;;;;;;17.10;71.84;99587.94;4976350;28;20228;-75
2021/05/10 03:07:23;;;;;;;1.58;1.35;;;;;;;17.10;72.67;99583.25;4992193;28;20620;-76
2021/05/10 03:09:49;;;;;;;1.42;1.30;;;;;;;16.88;74.50;99585.63;4977196;28;20726;-77
2021/05/10 03:12:17;;;;;;;1.60;1.40;;;;;;;16.84;75.27;99590.19;4975302;28;20241;-76
2021/05/10 03:14:47;;;;;;;1.95;1.55;;;;;;;16.79;75.41;99595.88;4976407;28;20189;-76
2021/05/10 03:17:15;;;;;;;4.60;1.45;;;;;;;16.68;75.42;99586.50;4977564;28;20224;-76
2021/05/10 03:19:43;;;;;;;2.90;1.40;;;;;;;16.75;75.16;99583.97;4978127;28;20272;-76
2021/05/10 03:22:08;;;;;;;2.78;1.50;;;;;;;16.75;73.11;99586.72;4976281;28;20222;-76
2021/05/10 03:24:34;;;;;;;2.30;1.40;;;;;;;16.92;71.73;99583.78;4976880;28;20217;-75
2021/05/10 03:27:02;;;;;;;1.90;1.55;;;;;;;16.74;72.93;99589.78;4992346;28;20232;-75
2021/05/10 03:29:28;;;;;;;1.80;1.52;;;;;;;16.67;73.07;99595.84;4963875;28;20737;-75
2021/05/10 03:31:56;;;;;;;4.43;1.52;;;;;;;16.59;74.24;99599.47;4968010;28;20225;-76
2021/05/10 03:34:22;;;;;;;3.00;1.50;;;;;;;16.66;73.90;99585.22;4993583;28;20196;-76
2021/05/10 03:36:47;;;;;;;2.05;1.50;;;;;;;16.72;73.69;99589.34;4993386;28;20711;-76
2021/05/10 03:39:13;;;;;;;2.25;1.30;;;;;;;16.72;73.24;99598.38;4976977;28;20209;-75
2021/05/10 03:41:41;;;;;;;3.05;1.63;;;;;;;16.76;74.13;99602.06;4942561;28;20231;-76
2021/05/10 03:44:07;;;;;;;2.53;1.40;;;;;;;16.73;73.28;99597.22;4942810;28;20193;-74
2021/05/10 03:46:33;;;;;;;3.00;1.80;;;;;;;16.39;75.12;99585.81;4975026;28;20237;-76
2021/05/10 03:48:58;;;;;;;2.00;1.80;;;;;;;16.38;75.84;99597.88;4991940;28;20209;-75
2021/05/10 03:51:29;;;;;;;4.03;1.95;;;;;;;16.46;76.30;99597.00;4958983;28;20623;-75
2021/05/10 03:53:55;;;;;;;2.88;1.52;;;;;;;16.43;75.54;99596.91;4959787;28;20182;-76
2021/05/10 03:56:23;;;;;;;2.25;1.70;;;;;;;16.90;73.31;99594.31;4958969;28;20218;-75
2021/05/10 03:58:48;;;;;;;2.17;1.50;;;;;;;16.93;74.05;99593.63;4942937;28;20683;-76
2021/05/10 04:01:14;;;;;;;2.00;1.50;;;;;;;16.99;73.87;99584.03;4973161;28;20228;-74
2021/05/10 04:03:49;;;;;;;1.50;1.40;;;;;;;17.04;71.64;99581.09;4982461;28;20181;-76
2021/05/10 04:09:23;;;;;;;2.65;1.52;;;;;;;17.13;70.89;99579.06;4963348;28;20208;-76
2021/05/10 04:14:28;;;;;;;2.47;1.70;;;;;;;17.13;71.82;99573.56;4975786;28;20165;-76
2021/05/10 04:16:55;;;;;;;1.63;1.48;;;;;;;17.21;71.55;99575.44;4956937;28;20268;-76
2021/05/10 04:19:23;;;;;;;2.35;1.45;;;;;;;17.34;71.15;99570.41;4943166;28;20299;-74
2021/05/10 04:21:54;;;;;;;2.30;1.60;;;;;;;17.37;70.92;99572.47;4941493;28;20221;-75
2021/05/10 04:24:21;;;;;;;3.25;1.67;;;;;;;17.33;71.05;99577.03;4977717;28;20761;-76
2021/05/10 04:26:47;;;;;;;3.33;1.85;;;;;;;17.48;69.49;99581.06;4958926;28;20312;-74
2021/05/10 04:29:15;;;;;;;2.08;1.80;;;;;;;17.59;69.03;99580.25;4967451;28;20198;-73
2021/05/10 04:31:41;;;;;;;2.80;1.77;;;;;;;17.72;68.24;99570.84;4952233;28;20226;-75
2021/05/10 04:34:10;;;;;;;2.05;1.60;;;;;;;17.86;67.74;99579.53;4974863;28;20254;-74
2021/05/10 04:36:36;;;;;;;2.70;1.65;;;;;;;17.74;68.65;99568.56;4989277;28;20671;-74
2021/05/10 04:39:05;;;;;;;1.73;1.42;;;;;;;17.91;68.23;99573.78;4989513;28;20202;-73
2021/05/10 04:41:31;;;;;;;3.58;1.63;;;;;;;17.97;68.13;99573.22;4988566;28;20280;-75
2021/05/10 04:43:56;;;;;;;2.63;1.48;;;;;;;17.97;67.68;99558.69;4972637;28;20190;-75
2021/05/10 04:46:22;;;;;;;2.42;1.65;;;;;;;18.01;68.21;99565.09;4956222;28;20229;-74
2021/05/10 04:48:47;;;;;;;2.78;1.65;;;;;;;18.09;68.55;99553.19;4956771;28;20194;-74
2021/05/10 04:51:13;;;;;;;2.97;1.67;;;;;;;18.14;68.69;99557.28;4990207;28;20324;-74
2021/05/10 04:53:39;;;;;;;1.67;1.33;;;;;;;18.23;68.32;99546.94;4972837;28;20694;-74
2021/05/10 04:56:07;;;;;;;3.33;1.45;;;;;;;18.29;68.35;99548.28;4993704;28;20233;-75
2021/05/10 04:58:39;;;;;;;2.75;1.50;;;;;;;18.41;66.93;99551.00;4993958;28;20198;-74
2021/05/10 05:01:05;;;;;;;2.60;1.40;;;;;;;18.46;67.59;99548.03;4976623;28;20225;-74
2021/05/10 05:03:31;;;;;;;3.13;1.60;;;;;;;18.55;67.88;99551.41;4957893;28;20205;-74
2021/05/10 05:05:57;;;;;;;1.98;1.50;;;;;;;18.59;67.08;99538.56;4959801;28;20293;-75
2021/05/10 05:08:22;;;;;;;2.70;1.60;;;;;;;18.67;67.08;99540.34;4989838;28;20209;-73
2021/05/10 05:10:51;;;;;;;1.92;1.60;;;;;;;18.58;69.41;99550.69;4992296;28;20234;-75
2021/05/10 05:13:21;;;;;;;1.95;1.70;;;;;;;19.59;65.67;99556.94;4982854;28;20641;-75
2021/05/10 05:15:46;;;;;;;28.27;24.95;;;;;;;20.06;63.56;99553.72;4946862;28;20225;-75
2021/05/10 05:18:12;;;;;;;3.70;1.73;;;;;;;19.81;63.64;99557.88;4973404;28;20206;-75
2021/05/10 05:20:44;;;;;;;2.20;1.35;;;;;;;19.89;62.90;99565.19;4989475;28;20225;-75
2021/05/10 05:23:22;;;;;;;4.38;1.40;;;;;;;19.98;58.81;99554.75;4963383;28;20563;-73
2021/05/10 05:25:53;;;;;;;2.58;1.48;;;;;;;20.00;58.58;99565.41;4975664;28;20253;-74
2021/05/10 05:28:22;;;;;;;2.38;1.40;;;;;;;20.15;58.75;99570.88;4976136;28;20212;-76
2021/05/10 05:30:47;;;;;;;4.45;1.40;;;;;;;20.18;58.66;99570.13;4975693;28;20235;-75
2021/05/10 05:33:15;;;;;;;1.92;1.40;;;;;;;20.46;57.63;99564.06;4974830;28;20193;-75
2021/05/10 05:35:41;;;;;;;2.45;1.33;;;;;;;20.45;56.88;99562.47;4956252;28;20297;-75
2021/05/10 05:38:13;;;;;;;2.03;1.20;;;;;;;20.59;57.11;99562.75;4956832;28;20206;-75
2021/05/10 05:40:41;;;;;;;2.45;1.42;;;;;;;20.36;55.61;99569.34;4971708;28;20307;-72
2021/05/10 05:43:08;;;;;;;3.78;1.58;;;;;;;20.31;58.53;99572.44;4971829;28;20676;-74
2021/05/10 05:45:37;;;;;;;1.63;1.35;;;;;;;20.27;58.78;99576.25;4940159;28;20261;-74
2021/05/10 05:48:03;;;;;;;1.35;1.25;;;;;;;20.36;58.33;99572.13;4940719;28;20206;-74
2021/05/10 05:50:34;;;;;;;2.00;1.30;;;;;;;20.30;59.14;99583.81;4940361;28;20293;-73
2021/05/10 05:53:02;;;;;;;3.78;1.40;;;;;;;20.16;59.55;99575.22;4971715;28;20291;-74
2021/05/10 05:55:30;;;;;;;1.83;1.50;;;;;;;20.16;61.37;99583.50;4956405;28;20220;-73
2021/05/10 05:57:59;;;;;;;3.40;1.58;;;;;;;20.30;59.82;99583.81;4971810;28;20186;-74
2021/05/10 06:00:25;;;;;;;2.10;1.50;;;;;;;20.67;58.99;99586.59;4955617;28;20194;-73
2021/05/10 06:02:50;;;;;;;3.22;1.40;;;;;;;20.84;59.72;99591.66;4955259;28;20205;-74
2021/05/10 06:05:18;;;;;;;1.58;1.48;;;;;;;20.90;57.21;99574.44;4954767;28;20214;-75
2021/05/10 06:07:47;;;;;;;1.85;1.40;;;;;;;21.26;56.70;99568.38;4966998;28;20200;-74
2021/05/10 06:10:14;;;;;;;2.47;1.30;;;;;;;21.47;55.87;99553.00;4958384;28;20256;-74
2021/05/10 06:12:45;;;;;;;3.13;1.20;;;;;;;21.46;55.71;99556.13;4990789;28;20181;-74
2021/05/10 06:15:11;;;;;;;3.17;1.40;;;;;;;21.51;55.23;99553.84;4990553;28;20182;-72
2021/05/10 06:17:36;;;;;;;1.30;1.20;;;;;;;21.30;56.28;99559.00;4991164;28;20193;-74
2021/05/10 06:20:13;;;;;;;3.85;1.55;;;;;;;21.30;56.98;99560.97;4975109;28;20202;-73
2021/05/10 06:22:39;;;;;;;1.90;1.50;;;;;;;21.14;57.67;99565.81;4974158;28;20278;-73
2021/05/10 06:25:07;;;;;;;1.30;1.20;;;;;;;20.97;57.45;99555.25;4974376;28;20209;-76
2021/05/10 06:27:32;;;;;;;1.45;1.33;;;;;;;21.40;56.18;99533.53;4943221;28;20201;-73
2021/05/10 06:30:00;;;;;;;2.00;1.48;;;;;;;21.32;57.34;99531.00;4959084;28;20205;-73
2021/05/10 06:32:26;;;;;;;2.72;1.45;;;;;;;21.52;55.20;99525.06;4971901;28;20573;-73
2021/05/10 06:34:53;;;;;;;6.03;1.70;;;;;;;21.86;54.64;99529.50;4974674;28;20212;-72
2021/05/10 06:37:22;;;;;;;3.60;1.20;;;;;;;21.79;55.76;99538.50;4975051;28;20283;-74
2021/05/10 06:39:49;;;;;;;1.73;1.40;;;;;;;22.04;54.10;99531.34;4988388;28;20249;-73
2021/05/10 06:42:15;;;;;;;2.45;1.60;;;;;;;22.17;54.35;99541.06;4982944;28;20230;-74
2021/05/10 06:44:41;;;;;;;3.47;1.48;;;;;;;22.47;52.83;99550.91;4971347;28;20234;-74
2021/05/10 06:47:11;;;;;;;2.30;1.55;;;;;;;22.58;52.27;99551.84;4978624;28;20424;-76
2021/05/10 06:49:39;;;;;;;3.80;1.50;;;;;;;22.74;51.86;99561.53;4957484;28;20206;-78
2021/05/10 06:52:05;;;;;;;1.52;1.35;;;;;;;22.77;51.25;99550.50;4974434;28;20232;-77
2021/05/10 06:54:35;;;;;;;2.38;1.50;;;;;;;22.89;50.47;99557.78;4993006;28;20272;-75
2021/05/10 06:57:01;;;;;;;1.75;1.55;;;;;;;22.61;50.93;99557.44;4960231;28;20225;-74
2021/05/10 06:59:34;;;;;;;3.20;1.50;;;;;;;23.10;50.38;99563.56;4991669;28;20301;-75
2021/05/10 07:02:02;;;;;;;2.65;1.52;;;;;;;23.07;50.34;99587.28;4958980;28;20229;-75
2021/05/10 07:04:28;;;;;;;1.65;1.40;;;;;;;22.71;52.94;99608.56;5000471;28;20566;-73
2021/05/10 07:06:56;;;;;;;1.60;1.50;;;;;;;22.64;52.04;99616.81;4994888;28;20698;-75
2021/05/10 07:09:22;;;;;;;2.05;1.50;;;;;;;22.48;52.92;99622.53;4979732;28;20694;-75
2021/05/10 07:11:50;;;;;;;3.80;1.75;;;;;;;22.43;54.04;99619.28;4992794;28;20278;-74
2021/05/10 07:14:16;;;;;;;2.90;1.45;;;;;;;22.51;53.00;99610.72;4994437;28;20188;-75
2021/05/10 07:16:44;;;;;;;2.13;1.50;;;;;;;22.56;53.04;99617.88;4990217;28;20612;-76
2021/05/10 07:19:10;;;;;;;5.20;1.40;;;;;;;22.58;54.43;99612.75;4974554;28;20209;-75
2021/05/10 07:21:37;;;;;;;2.85;1.50;;;;;;;22.59;52.99;99631.00;4968435;28;20214;-75
2021/05/10 07:24:03;;;;;;;2.30;1.40;;;;;;;22.84;52.40;99638.44;4965689;28;20554;-76
2021/05/10 07:26:28;;;;;;;5.93;1.50;;;;;;;22.81;53.20;99645.50;4973480;28;20297;-74
2021/05/10 07:28:56;;;;;;;3.85;1.60;;;;;;;23.04;51.40;99637.94;4990411;28;20202;-74
2021/05/10 07:31:22;;;;;;;2.58;1.35;;;;;;;22.97;52.42;99637.84;4973463;28;20237;-76
2021/05/10 07:36:30;;;;;;;4.03;1.40;;;;;;;23.61;50.09;99636.16;5117550;22;20228;-74
2021/05/10 07:38:56;;;;;;;2.38;1.23;;;;;;;23.81;48.96;99634.78;5029353;28;20210;-74
2021/05/10 07:41:26;;;;;;;3.60;1.30;;;;;;;24.26;47.06;99631.53;4996029;28;20208;-75
2021/05/10 07:43:52;;;;;;;2.25;1.50;;;;;;;23.97;46.95;99633.31;4980586;28;20234;-74
2021/05/10 07:46:20;;;;;;;1.95;1.23;;;;;;;24.23;47.67;99637.84;4980899;28;20713;-76
2021/05/10 07:48:48;;;;;;;3.40;1.40;;;;;;;24.47;47.07;99636.06;4996475;28;20273;-76
2021/05/10 07:51:18;;;;;;;1.90;1.17;;;;;;;24.93;46.34;99640.69;4980016;28;20252;-77
2021/05/10 07:53:44;;;;;;;1.70;1.20;;;;;;;25.17;43.22;99632.41;4995646;28;20328;-79
2021/05/10 07:56:13;;;;;;;2.70;1.20;;;;;;;25.42;42.77;99649.97;4992623;28;20225;-78
2021/05/10 07:58:44;;;;;;;2.75;1.20;;;;;;;25.54;42.58;99657.94;4993889;28;20538;-78
2021/05/10 08:01:12;;;;;;;2.88;1.10;;;;;;;26.01;41.38;99650.84;4980757;28;20223;-79
2021/05/10 08:03:41;;;;;;;1.95;1.10;;;;;;;25.91;40.61;99658.38;5018407;28;20188;-78
2021/05/10 08:06:07;;;;;;;1.55;1.02;;;;;;;26.29;41.01;99653.63;5027421;28;20239;-79
2021/05/10 08:08:35;;;;;;;1.73;1.02;;;;;;;26.40;39.79;99646.03;4987131;28;20204;-78
2021/05/10 08:11:02;;;;;;;2.30;1.15;;;;;;;26.21;39.54;99656.78;4980082;28;20267;-79
2021/05/10 08:13:28;;;;;;;1.70;1.20;;;;;;;26.24;38.66;99656.81;4985845;28;20217;-77
2021/05/10 08:15:53;;;;;;;1.83;1.00;;;;;;;26.00;39.71;99654.81;4984330;28;20221;-79
2021/05/10 08:18:21;;;;;;;3.08;1.40;;;;;;;26.71;38.38;99641.16;4994748;28;20276;-78
2021/05/10 08:20:50;;;;;;;36.08;3.15;;;;;;;26.34;38.35;99647.66;5014369;28;20225;-77
2021/05/10 08:23:16;;;;;;;139.80;9.57;;;;;;;26.12;38.41;99651.63;4978772;28;20327;-77
2021/05/10 08:25:42;;;;;;;1.67;0.90;;;;;;;25.66;38.68;99638.91;4963667;28;20236;-78
2021/05/10 08:28:08;;;;;;;2.95;0.90;;;;;;;26.41;38.21;99637.28;4980131;28;20307;-78
2021/05/10 08:30:36;;;;;;;1.83;0.98;;;;;;;26.39;37.31;99633.28;5015997;28;20216;-77
2021/05/10 08:33:02;;;;;;;2.03;1.40;;;;;;;26.91;37.13;99625.59;4992388;28;20246;-79
2021/05/10 08:35:32;;;;;;;4.20;3.13;;;;;;;26.34;36.51;99626.16;5002183;28;20273;-78
2021/05/10 08:37:59;;;;;;;6.82;2.13;;;;;;;26.12;36.76;99623.00;5006152;28;20181;-81
2021/05/10 08:40:27;;;;;;;1.10;1.00;;;;;;;26.10;37.36;99628.16;5021388;28;20193;-75
2021/05/10 08:42:58;;;;;;;2.00;1.00;;;;;;;26.38;36.93;99626.16;5001273;28;20193;-78
2021/05/10 08:45:24;;;;;;;3.40;1.05;;;;;;;26.57;36.64;99640.41;5002172;28;20256;-76
2021/05/10 08:47:52;;;;;;;7.40;6.40;;;;;;;26.39;37.25;99641.66;4973307;28;20332;-77
2021/05/10 08:50:17;;;;;;;3.15;1.80;;;;;;;26.53;37.25;99650.00;5018070;28;20239;-77
2021/05/10 08:52:45;;;;;;;1.50;1.00;;;;;;;26.54;37.06;99646.03;4968451;28;20215;-79
2021/05/10 08:55:15;;;;;;;2.88;1.20;;;;;;;26.58;36.59;99641.22;5019521;28;20197;-79
2021/05/10 08:57:45;;;;;;;3.60;1.02;;;;;;;26.65;36.34;99646.75;5002087;28;20655;-78
2021/05/10 09:00:16;;;;;;;1.02;0.93;;;;;;;26.79;37.78;99641.94;5006340;28;20189;-77
2021/05/10 09:02:44;;;;;;;5.85;5.10;;;;;;;26.98;36.57;99636.72;5022159;28;20271;-79
2021/05/10 09:05:22;;;;;;;2.95;1.73;;;;;;;27.12;36.57;99633.84;5023932;28;20203;-78
2021/05/10 09:08:09;;;;;;;2.38;1.05;;;;;;;27.19;36.04;99640.19;4990517;28;20177;-79
2021/05/10 09:10:35;;;;;;;9.60;1.70;;;;;;;26.62;35.77;99639.22;4984250;28;20229;-77
2021/05/10 09:13:03;;;;;;;2.08;1.30;;;;;;;27.25;35.72;99637.78;5002663;28;20177;-79
2021/05/10 09:15:35;;;;;;;2.30;1.27;;;;;;;26.75;35.27;99635.59;4965988;28;20230;-78
2021/05/10 09:18:05;;;;;;;4.97;1.35;;;;;;;26.59;36.26;99648.38;4982164;28;20298;-75
2021/05/10 09:20:36;;;;;;;2.08;1.08;;;;;;;26.91;35.84;99642.34;4996759;28;20234;-78
2021/05/10 09:23:04;;;;;;;1.27;1.10;;;;;;;27.32;35.03;99649.69;4966442;28;20189;-78
2021/05/10 09:25:34;;;;;;;2.47;1.05;;;;;;;27.10;35.76;99648.19;4979610;28;20279;-78
2021/05/10 09:28:16;;;;;;;2.42;1.10;;;;;;;27.58;34.68;99633.22;5022293;28;20189;-77
2021/05/10 09:30:47;;;;;;;5.45;1.33;;;;;;;27.59;36.42;99643.16;4996246;28;20245;-75
2021/05/10 09:33:25;;;;;;;1.55;1.27;;;;;;;27.42;35.03;99636.88;5005129;28;20177;-78
2021/05/10 09:36:07;;;;;;;3.47;1.20;;;;;;;27.46;35.60;99632.91;4997238;28;20570;-76
2021/05/10 09:38:35;;;;;;;2.42;1.10;;;;;;;27.56;34.95;99638.44;4995094;28;20748;-78
2021/05/10 09:41:07;;;;;;;4.65;1.65;;;;;;;27.44;34.61;99642.91;4970046;28;20248;-78
2021/05/10 09:43:35;;;;;;;4.45;1.50;;;;;;;27.67;33.67;99641.91;4979589;28;20641;-78
2021/05/10 09:46:07;;;;;;;2.42;1.42;;;;;;;27.25;34.58;99637.78;4999790;28;20225;-76
2021/05/10 09:48:37;;;;;;;4.57;1.27;;;;;;;26.80;35.66;99641.53;4999269;28;20628;-76
2021/05/10 09:51:12;;;;;;;3.15;1.27;;;;;;;26.74;36.19;99640.38;5005161;28;20734;-78
2021/05/10 09:53:49;;;;;;;4.43;1.10;;;;;;;26.63;35.83;99644.41;5006760;28;20251;-77
2021/05/10 09:56:25;;;;;;;2.85;1.10;;;;;;;26.51;37.62;99655.19;4978884;28;20216;-77
2021/05/10 09:58:50;;;;;;;2.55;1.10;;;;;;;26.53;37.11;99669.50;5011272;28;20283;-77
2021/05/10 10:01:16;;;;;;;3.05;1.20;;;;;;;26.28;37.84;99660.38;4997179;28;20220;-77
2021/05/10 10:03:42;;;;;;;1.50;1.00;;;;;;;26.17;36.86;99665.16;4987114;28;20880;-68
2021/05/10 10:06:20;;;;;;;1.50;1.02;;;;;;;26.40;37.18;99651.63;5011394;28;20225;-77
2021/05/10 10:08:49;;;;;;;1.90;1.27;;;;;;;26.72;36.66;99659.50;4971997;28;20208;-76
2021/05/10 10:11:17;;;;;;;1.60;1.00;;;;;;;26.84;36.26;99647.94;4994574;28;20232;-77
2021/05/10 10:13:44;;;;;;;1.70;1.20;;;;;;;26.83;37.19;99643.56;4994507;28;20227;-77
2021/05/10 10:16:11;;;;;;;3.83;1.20;;;;;;;26.67;36.78;99644.41;4979943;28;20299;-77
2021/05/10 10:18:40;;;;;;;6.53;1.35;;;;;;;26.81;37.29;99643.16;4995542;28;20653;-78
2021/05/10 10:21:09;;;;;;;1.33;1.23;;;;;;;27.09;35.93;99645.84;4964175;28;20298;-78
2021/05/10 10:23:35;;;;;;;1.13;1.00;;;;;;;27.65;35.28;99641.53;4965820;28;20181;-78
2021/05/10 10:26:02;;;;;;;2.15;1.20;;;;;;;27.59;35.35;99643.16;4981303;28;20236;-78
2021/05/10 10:28:30;;;;;;;2.83;1.13;;;;;;;27.82;34.62;99635.03;4981251;28;20205;-77
2021/05/10 10:30:58;;;;;;;5.32;1.50;;;;;;;28.39;35.17;99629.34;4978495;28;20706;-75
2021/05/10 10:33:37;;;;;;;1.65;1.20;;;;;;;28.00;34.47;99621.69;5009542;28;20193;-77
2021/05/10 10:36:03;;;;;;;1.85;1.40;;;;;;;27.58;35.60;99636.00;4999195;28;20228;-75
2021/05/10 10:38:30;;;;;;;5.65;1.63;;;;;;;27.43;35.71;99644.06;4961856;28;20205;-76
2021/05/10 10:41:15;;;;;;;4.88;1.15;;;;;;;27.29;35.44;99642.16;4977852;28;20268;-77
2021/05/10 10:43:41;;;;;;;1.52;1.20;;;;;;;27.38;36.27;99624.94;4997159;28;20173;-75
2021/05/10 10:46:26;;;;;;;3.55;1.17;;;;;;;27.48;35.53;99622.13;4980156;28;20777;-78
2021/05/10 10:48:53;;;;;;;1.80;1.20;;;;;;;27.38;34.95;99630.53;4997386;28;20277;-78
2021/05/10 10:51:19;;;;;;;5.00;1.52;;;;;;;27.67;35.41;99632.75;4981338;28;20229;-77
2021/05/10 10:53:54;;;;;;;1.77;1.20;;;;;;;28.09;34.63;99638.81;4980224;28;20609;-76
2021/05/10 10:56:53;;;;;;;2.63;1.25;;;;;;;28.18;35.20;99641.94;4980892;28;20261;-77
2021/05/10 10:59:31;;;;;;;2.47;1.20;;;;;;;28.07;36.15;99633.63;4980221;28;20284;-74
2021/05/10 11:02:00;;;;;;;5.40;1.38;;;;;;;28.54;34.66;99639.16;4979499;28;20229;-73
2021/05/10 11:04:29;;;;;;;6.15;1.60;;;;;;;28.49;34.58;99628.44;4963013;28;20185;-74
2021/05/10 11:06:57;;;;;;;3.05;1.73;;;;;;;27.83;34.40;99619.06;4992625;28;20276;-77
2021/05/10 11:09:44;;;;;;;10.05;2.13;;;;;;;27.49;35.82;99627.31;4945620;28;20205;-74
2021/05/10 11:13:06;;;;;;;8.55;1.77;;;;;;;27.42;35.87;99625.72;4993940;28;20229;-74
2021/05/10 11:15:38;;;;;;;79.57;12.85;;;;;;;27.91;37.24;99644.53;4952736;28;20249;-75
2021/05/10 11:18:08;;;;;;;13.93;2.95;;;;;;;27.23;36.17;99651.34;5010686;28;20216;-76
2021/05/10 11:20:47;;;;;;;5.85;1.50;;;;;;;26.60;37.44;99666.72;5012044;28;20228;-75
2021/05/10 11:23:21;;;;;;;10.35;2.53;;;;;;;26.78;37.42;99665.47;4992946;28;20568;-76
2021/05/10 11:25:49;;;;;;;2.50;1.17;;;;;;;26.93;37.97;99675.41;5010594;28;20255;-76
2021/05/10 11:28:24;;;;;;;2.65;1.40;;;;;;;27.08;37.62;99685.28;4993428;28;20197;-75
2021/05/10 11:31:02;;;;;;;3.25;1.17;;;;;;;27.01;37.94;99685.31;5010377;28;20232;-75
2021/05/10 11:33:51;;;;;;;7.40;2.05;;;;;;;27.24;38.34;99681.63;4994290;28;20242;-75
2021/05/10 11:36:21;;;;;;;6.28;1.33;;;;;;;27.49;38.04;99669.16;5010920;28;20217;-75
2021/05/10 11:39:01;;;;;;;2.15;1.38;;;;;;;27.65;36.95;99666.66;5010808;28;20572;-73
2021/05/10 11:41:44;;;;;;;2.25;1.35;;;;;;;27.48;36.39;99675.16;5012464;28;20602;-76
2021/05/10 11:44:29;;;;;;;3.38;1.42;;;;;;;28.08;36.65;99684.75;5012484;28;20184;-77
2021/05/10 11:47:00;;;;;;;2.10;1.20;;;;;;;28.00;35.95;99691.53;4983409;28;20852;-77
2021/05/10 11:49:35;;;;;;;3.20;1.45;;;;;;;27.82;36.20;99696.47;5015807;28;20296;-78
2021/05/10 11:52:12;;;;;;;3.83;1.50;;;;;;;27.75;37.32;99695.72;5016105;28;20267;-77